sensor_id;sensor_type;location;lat;lon;timestamp;P1;durP1;ratioP1;P2;durP2;ratioP2
80854;SDS011;70272;49.222;-122.892;2023-12-04T00:02:24;3.05;;;1.92;;
80854;SDS011;70272;49.222;-122.892;2023-12-04T00:04:50;2.63;;;1.90;;
80854;SDS011;70272;49.222;-122.892;2023-12-04T00:07:16;3.92;;;2.10;;
80854;SDS011;70272;49.222;-122.892;2023-12-04T00:09:42;2.30;;;1.60;;
80854;SDS011;70272;49.222;-122.892;2023-12-04T00:12:09;3.25;;;1.90;;
80854;SDS011;70272;49.222;-122.892;2023-12-04T00:14:35;3.13;;;2.17;;
80854;SDS011;70272;49.222;-122.892;2023-12-04T00:17:01;4.10;;;1.90;;
80854;SDS011;70272;49.222;-122.892;2023-12-04T00:19:27;3.40;;;1.92;;
80854;SDS011;70272;49.222;-122.892;2023-12-04T00:21:54;3.55;;;2.05;;
80854;SDS011;70272;49.222;-122.892;2023-12-04T00:24:20;2.67;;;1.80;;
80854;SDS011;70272;49.222;-122.892;2023-12-04T00:26:46;2.40;;;1.90;;
80854;SDS011;70272;49.222;-122.892;2023-12-04T00:29:12;2.38;;;1.40;;
80854;SDS011;70272;49.222;-122.892;2023-12-04T00:31:39;2.47;;;1.58;;
80854;SDS011;70272;49.222;-122.892;2023-12-04T00:34:05;2.50;;;1.50;;
80854;SDS011;70272;49.222;-122.892;2023-12-04T00:36:31;1.80;;;1.40;;
80854;SDS011;70272;49.222;-122.892;2023-12-04T00:38:57;1.98;;;1.60;;
80854;SDS011;70272;49.222;-122.892;2023-12-04T00:41:24;1.90;;;1.48;;
80854;SDS011;70272;49.222;-122.892;2023-12-04T00:43:52;3.15;;;1.65;;
80854;SDS011;70272;49.222;-122.892;2023-12-04T00:46:18;2.45;;;1.80;;
80854;SDS011;70272;49.222;-122.892;2023-12-04T00:48:45;2.88;;;1.80;;
80854;SDS011;70272;49.222;-122.892;2023-12-04T00:51:11;3.13;;;1.98;;
80854;SDS011;70272;49.222;-122.892;2023-12-04T00:53:38;3.97;;;2.20;;
80854;SDS011;70272;49.222;-122.892;2023-12-04T00:56:04;3.53;;;1.85;;
80854;SDS011;70272;49.222;-122.892;2023-12-04T00:58:31;2.90;;;1.90;;
80854;SDS011;70272;49.222;-122.892;2023-12-04T01:00:57;2.78;;;1.90;;
80854;SDS011;70272;49.222;-122.892;2023-12-04T01:03:27;3.72;;;1.95;;
80854;SDS011;70272;49.222;-122.892;2023-12-04T01:05:53;3.15;;;1.90;;
80854;SDS011;70272;49.222;-122.892;2023-12-04T01:08:19;3.10;;;2.13;;
80854;SDS011;70272;49.222;-122.892;2023-12-04T01:10:46;3.90;;;2.10;;
80854;SDS011;70272;49.222;-122.892;2023-12-04T01:13:12;2.97;;;1.90;;
80854;SDS011;70272;49.222;-122.892;2023-12-04T01:15:39;3.05;;;2.30;;
80854;SDS011;70272;49.222;-122.892;2023-12-04T01:18:05;3.00;;;1.92;;
80854;SDS011;70272;49.222;-122.892;2023-12-04T01:20:31;3.70;;;1.92;;
80854;SDS011;70272;49.222;-122.892;2023-12-04T01:22:58;3.45;;;1.83;;
80854;SDS011;70272;49.222;-122.892;2023-12-04T01:25:24;2.67;;;1.80;;
80854;SDS011;70272;49.222;-122.892;2023-12-04T01:27:51;2.83;;;1.50;;
80854;SDS011;70272;49.222;-122.892;2023-12-04T01:30:17;1.95;;;1.65;;
80854;SDS011;70272;49.222;-122.892;2023-12-04T01:32:43;2.10;;;1.33;;
80854;SDS011;70272;49.222;-122.892;2023-12-04T01:35:09;2.55;;;1.33;;
80854;SDS011;70272;49.222;-122.892;2023-12-04T01:37:36;1.48;;;1.30;;
80854;SDS011;70272;49.222;-122.892;2023-12-04T01:40:04;1.45;;;1.30;;
80854;SDS011;70272;49.222;-122.892;2023-12-04T01:42:32;2.55;;;1.52;;
80854;SDS011;70272;49.222;-122.892;2023-12-04T01:44:58;2.05;;;1.55;;
80854;SDS011;70272;49.222;-122.892;2023-12-04T01:47:24;2.40;;;1.52;;
80854;SDS011;70272;49.222;-122.892;2023-12-04T01:49:51;1.52;;;1.42;;
80854;SDS011;70272;49.222;-122.892;2023-12-04T01:52:17;2.22;;;1.50;;
80854;SDS011;70272;49.222;-122.892;2023-12-04T01:54:44;2.60;;;1.67;;
80854;SDS011;70272;49.222;-122.892;2023-12-04T01:57:10;2.08;;;1.48;;
80854;SDS011;70272;49.222;-122.892;2023-12-04T01:59:37;2.75;;;1.58;;
80854;SDS011;70272;49.222;-122.892;2023-12-04T02:02:03;2.63;;;2.08;;
80854;SDS011;70272;49.222;-122.892;2023-12-04T02:04:30;2.53;;;1.73;;
80854;SDS011;70272;49.222;-122.892;2023-12-04T02:06:57;2.63;;;1.55;;
80854;SDS011;70272;49.222;-122.892;2023-12-04T02:09:24;3.65;;;1.63;;
80854;SDS011;70272;49.222;-122.892;2023-12-04T02:11:50;1.90;;;1.50;;
80854;SDS011;70272;49.222;-122.892;2023-12-04T02:14:18;3.63;;;1.60;;
80854;SDS011;70272;49.222;-122.892;2023-12-04T02:16:44;3.17;;;1.80;;
80854;SDS011;70272;49.222;-122.892;2023-12-04T02:19:11;2.05;;;1.42;;
80854;SDS011;70272;49.222;-122.892;2023-12-04T02:21:38;4.18;;;1.95;;
80854;SDS011;70272;49.222;-122.892;2023-12-04T02:24:04;2.53;;;1.77;;
80854;SDS011;70272;49.222;-122.892;2023-12-04T02:26:32;2.50;;;1.70;;
80854;SDS011;70272;49.222;-122.892;2023-12-04T02:29:04;2.53;;;1.80;;
80854;SDS011;70272;49.222;-122.892;2023-12-04T02:31:34;1.98;;;1.55;;
80854;SDS011;70272;49.222;-122.892;2023-12-04T02:34:00;2.50;;;1.73;;
80854;SDS011;70272;49.222;-122.892;2023-12-04T02:36:27;3.30;;;1.95;;
80854;SDS011;70272;49.222;-122.892;2023-12-04T02:38:54;2.80;;;1.80;;
80854;SDS011;70272;49.222;-122.892;2023-12-04T02:41:21;2.83;;;2.20;;
80854;SDS011;70272;49.222;-122.892;2023-12-04T02:43:47;3.17;;;1.98;;
80854;SDS011;70272;49.222;-122.892;2023-12-04T02:46:13;3.50;;;2.13;;
80854;SDS011;70272;49.222;-122.892;2023-12-04T02:48:40;2.50;;;1.80;;
80854;SDS011;70272;49.222;-122.892;2023-12-04T02:51:06;2.88;;;1.88;;
80854;SDS011;70272;49.222;-122.892;2023-12-04T02:53:33;3.35;;;1.98;;
80854;SDS011;70272;49.222;-122.892;2023-12-04T02:55:59;2.85;;;1.88;;
80854;SDS011;70272;49.222;-122.892;2023-12-04T02:58:25;3.60;;;2.25;;
80854;SDS011;70272;49.222;-122.892;2023-12-04T03:00:51;3.60;;;1.98;;
80854;SDS011;70272;49.222;-122.892;2023-12-04T03:03:17;3.60;;;2.25;;
80854;SDS011;70272;49.222;-122.892;2023-12-04T03:05:44;3.15;;;2.30;;
80854;SDS011;70272;49.222;-122.892;2023-12-04T03:08:10;3.40;;;2.30;;
80854;SDS011;70272;49.222;-122.892;2023-12-04T03:10:36;4.25;;;2.25;;
80854;SDS011;70272;49.222;-122.892;2023-12-04T03:13:03;4.72;;;2.30;;
80854;SDS011;70272;49.222;-122.892;2023-12-04T03:15:29;4.07;;;2.30;;
80854;SDS011;70272;49.222;-122.892;2023-12-04T03:17:55;4.03;;;2.17;;
80854;SDS011;70272;49.222;-122.892;2023-12-04T03:20:23;3.58;;;2.17;;
80854;SDS011;70272;49.222;-122.892;2023-12-04T03:22:49;3.08;;;2.00;;
80854;SDS011;70272;49.222;-122.892;2023-12-04T03:25:16;3.38;;;2.22;;
80854;SDS011;70272;49.222;-122.892;2023-12-04T03:27:42;1.85;;;1.52;;
80854;SDS011;70272;49.222;-122.892;2023-12-04T03:30:08;2.88;;;1.80;;
80854;SDS011;70272;49.222;-122.892;2023-12-04T03:32:35;2.40;;;1.52;;
80854;SDS011;70272;49.222;-122.892;2023-12-04T03:35:01;3.10;;;1.98;;
80854;SDS011;70272;49.222;-122.892;2023-12-04T03:37:27;2.30;;;1.70;;
80854;SDS011;70272;49.222;-122.892;2023-12-04T03:39:54;4.43;;;1.85;;
80854;SDS011;70272;49.222;-122.892;2023-12-04T03:42:20;3.05;;;1.95;;
80854;SDS011;70272;49.222;-122.892;2023-12-04T03:44:46;2.47;;;1.75;;
80854;SDS011;70272;49.222;-122.892;2023-12-04T03:47:12;2.90;;;1.98;;
80854;SDS011;70272;49.222;-122.892;2023-12-04T03:49:39;3.83;;;2.20;;
80854;SDS011;70272;49.222;-122.892;2023-12-04T03:52:05;3.38;;;1.85;;
80854;SDS011;70272;49.222;-122.892;2023-12-04T03:54:31;3.20;;;2.30;;
80854;SDS011;70272;49.222;-122.892;2023-12-04T03:56:57;3.40;;;1.88;;
80854;SDS011;70272;49.222;-122.892;2023-12-04T03:59:24;4.03;;;1.80;;
80854;SDS011;70272;49.222;-122.892;2023-12-04T04:01:50;2.00;;;1.65;;
80854;SDS011;70272;49.222;-122.892;2023-12-04T04:04:16;5.25;;;2.50;;
80854;SDS011;70272;49.222;-122.892;2023-12-04T04:06:43;3.92;;;2.17;;
80854;SDS011;70272;49.222;-122.892;2023-12-04T04:09:09;3.50;;;1.90;;
80854;SDS011;70272;49.222;-122.892;2023-12-04T04:11:35;3.15;;;1.90;;
80854;SDS011;70272;49.222;-122.892;2023-12-04T04:14:01;2.90;;;1.80;;
80854;SDS011;70272;49.222;-122.892;2023-12-04T04:16:28;2.92;;;1.70;;
80854;SDS011;70272;49.222;-122.892;2023-12-04T04:18:54;2.50;;;1.63;;
80854;SDS011;70272;49.222;-122.892;2023-12-04T04:21:20;3.72;;;1.75;;
80854;SDS011;70272;49.222;-122.892;2023-12-04T04:23:47;3.17;;;1.90;;
80854;SDS011;70272;49.222;-122.892;2023-12-04T04:26:13;2.67;;;1.77;;
80854;SDS011;70272;49.222;-122.892;2023-12-04T04:28:39;2.83;;;1.55;;
80854;SDS011;70272;49.222;-122.892;2023-12-04T04:31:05;2.60;;;1.83;;
80854;SDS011;70272;49.222;-122.892;2023-12-04T04:33:32;2.67;;;1.80;;
80854;SDS011;70272;49.222;-122.892;2023-12-04T04:35:58;2.42;;;1.65;;
80854;SDS011;70272;49.222;-122.892;2023-12-04T04:38:25;2.65;;;1.77;;
80854;SDS011;70272;49.222;-122.892;2023-12-04T04:40:51;2.95;;;1.90;;
80854;SDS011;70272;49.222;-122.892;2023-12-04T04:43:18;2.75;;;1.90;;
80854;SDS011;70272;49.222;-122.892;2023-12-04T04:45:45;2.30;;;1.83;;
80854;SDS011;70272;49.222;-122.892;2023-12-04T04:48:11;2.85;;;2.28;;
80854;SDS011;70272;49.222;-122.892;2023-12-04T04:50:37;3.55;;;2.08;;
80854;SDS011;70272;49.222;-122.892;2023-12-04T04:53:04;2.90;;;2.00;;
80854;SDS011;70272;49.222;-122.892;2023-12-04T04:55:30;2.83;;;1.80;;
80854;SDS011;70272;49.222;-122.892;2023-12-04T04:57:57;4.05;;;2.10;;
80854;SDS011;70272;49.222;-122.892;2023-12-04T05:00:23;2.72;;;1.92;;
80854;SDS011;70272;49.222;-122.892;2023-12-04T05:02:50;2.95;;;2.10;;
80854;SDS011;70272;49.222;-122.892;2023-12-04T05:05:17;3.65;;;1.92;;
80854;SDS011;70272;49.222;-122.892;2023-12-04T05:07:43;3.20;;;2.00;;
80854;SDS011;70272;49.222;-122.892;2023-12-04T05:10:09;3.22;;;2.03;;
80854;SDS011;70272;49.222;-122.892;2023-12-04T05:12:35;4.47;;;2.22;;
80854;SDS011;70272;49.222;-122.892;2023-12-04T05:15:02;4.13;;;2.10;;
80854;SDS011;70272;49.222;-122.892;2023-12-04T05:17:28;3.90;;;2.20;;
80854;SDS011;70272;49.222;-122.892;2023-12-04T05:19:55;2.83;;;2.10;;
80854;SDS011;70272;49.222;-122.892;2023-12-04T05:22:21;3.13;;;2.08;;
80854;SDS011;70272;49.222;-122.892;2023-12-04T05:24:47;3.22;;;2.17;;
80854;SDS011;70272;49.222;-122.892;2023-12-04T05:27:13;3.45;;;2.00;;
80854;SDS011;70272;49.222;-122.892;2023-12-04T05:29:40;3.00;;;2.03;;
80854;SDS011;70272;49.222;-122.892;2023-12-04T05:32:06;4.75;;;2.25;;
80854;SDS011;70272;49.222;-122.892;2023-12-04T05:34:32;3.00;;;2.10;;
80854;SDS011;70272;49.222;-122.892;2023-12-04T05:36:58;3.88;;;2.22;;
80854;SDS011;70272;49.222;-122.892;2023-12-04T05:39:25;2.20;;;1.70;;
80854;SDS011;70272;49.222;-122.892;2023-12-04T05:41:51;1.70;;;1.30;;
80854;SDS011;70272;49.222;-122.892;2023-12-04T05:44:17;2.40;;;1.60;;
80854;SDS011;70272;49.222;-122.892;2023-12-04T05:46:44;2.85;;;1.85;;
80854;SDS011;70272;49.222;-122.892;2023-12-04T05:49:10;2.92;;;2.00;;
80854;SDS011;70272;49.222;-122.892;2023-12-04T05:51:36;3.63;;;1.92;;
80854;SDS011;70272;49.222;-122.892;2023-12-04T05:54:02;2.50;;;1.80;;
80854;SDS011;70272;49.222;-122.892;2023-12-04T05:56:29;2.60;;;1.90;;
80854;SDS011;70272;49.222;-122.892;2023-12-04T05:58:55;3.92;;;1.85;;
80854;SDS011;70272;49.222;-122.892;2023-12-04T06:01:21;3.25;;;1.80;;
80854;SDS011;70272;49.222;-122.892;2023-12-04T06:03:48;3.22;;;1.80;;
80854;SDS011;70272;49.222;-122.892;2023-12-04T06:06:14;4.57;;;2.05;;
80854;SDS011;70272;49.222;-122.892;2023-12-04T06:08:40;3.17;;;1.83;;
80854;SDS011;70272;49.222;-122.892;2023-12-04T06:11:07;3.83;;;2.00;;
80854;SDS011;70272;49.222;-122.892;2023-12-04T06:13:33;2.65;;;1.70;;
80854;SDS011;70272;49.222;-122.892;2023-12-04T06:15:59;3.00;;;2.13;;
80854;SDS011;70272;49.222;-122.892;2023-12-04T06:18:26;2.22;;;1.60;;
80854;SDS011;70272;49.222;-122.892;2023-12-04T06:20:52;2.92;;;1.70;;
80854;SDS011;70272;49.222;-122.892;2023-12-04T06:23:18;2.85;;;1.80;;
80854;SDS011;70272;49.222;-122.892;2023-12-04T06:25:45;3.53;;;1.70;;
80854;SDS011;70272;49.222;-122.892;2023-12-04T06:28:11;3.25;;;1.67;;
80854;SDS011;70272;49.222;-122.892;2023-12-04T06:30:38;2.50;;;1.70;;
80854;SDS011;70272;49.222;-122.892;2023-12-04T06:33:04;2.83;;;1.92;;
80854;SDS011;70272;49.222;-122.892;2023-12-04T06:35:31;3.45;;;2.00;;
80854;SDS011;70272;49.222;-122.892;2023-12-04T06:37:58;2.90;;;1.70;;
80854;SDS011;70272;49.222;-122.892;2023-12-04T06:40:33;4.82;;;2.00;;
80854;SDS011;70272;49.222;-122.892;2023-12-04T06:43:00;3.63;;;2.20;;
80854;SDS011;70272;49.222;-122.892;2023-12-04T06:45:27;3.35;;;2.20;;
80854;SDS011;70272;49.222;-122.892;2023-12-04T06:47:54;3.15;;;2.00;;
80854;SDS011;70272;49.222;-122.892;2023-12-04T06:50:20;3.40;;;2.35;;
80854;SDS011;70272;49.222;-122.892;2023-12-04T06:52:46;4.22;;;1.85;;
80854;SDS011;70272;49.222;-122.892;2023-12-04T06:55:12;2.85;;;1.90;;
80854;SDS011;70272;49.222;-122.892;2023-12-04T06:57:39;2.90;;;1.95;;
80854;SDS011;70272;49.222;-122.892;2023-12-04T07:00:05;3.08;;;2.00;;
80854;SDS011;70272;49.222;-122.892;2023-12-04T07:02:33;3.47;;;1.65;;
80854;SDS011;70272;49.222;-122.892;2023-12-04T07:04:59;4.20;;;2.10;;
80854;SDS011;70272;49.222;-122.892;2023-12-04T07:07:28;5.40;;;2.80;;
80854;SDS011;70272;49.222;-122.892;2023-12-04T07:09:54;4.65;;;2.20;;
80854;SDS011;70272;49.222;-122.892;2023-12-04T07:12:21;3.47;;;2.00;;
80854;SDS011;70272;49.222;-122.892;2023-12-04T07:14:47;3.22;;;2.20;;
80854;SDS011;70272;49.222;-122.892;2023-12-04T07:17:13;3.33;;;1.63;;
80854;SDS011;70272;49.222;-122.892;2023-12-04T07:19:40;3.97;;;2.10;;
80854;SDS011;70272;49.222;-122.892;2023-12-04T07:22:07;3.60;;;2.03;;
80854;SDS011;70272;49.222;-122.892;2023-12-04T07:24:33;3.60;;;1.98;;
80854;SDS011;70272;49.222;-122.892;2023-12-04T07:27:00;3.42;;;1.95;;
80854;SDS011;70272;49.222;-122.892;2023-12-04T07:29:26;3.70;;;2.08;;
80854;SDS011;70272;49.222;-122.892;2023-12-04T07:31:54;3.30;;;1.80;;
80854;SDS011;70272;49.222;-122.892;2023-12-04T07:34:20;3.67;;;1.85;;
80854;SDS011;70272;49.222;-122.892;2023-12-04T07:36:46;3.25;;;2.10;;
80854;SDS011;70272;49.222;-122.892;2023-12-04T07:39:13;3.03;;;2.13;;
80854;SDS011;70272;49.222;-122.892;2023-12-04T07:41:40;2.95;;;1.77;;
80854;SDS011;70272;49.222;-122.892;2023-12-04T07:44:07;4.35;;;2.28;;
80854;SDS011;70272;49.222;-122.892;2023-12-04T07:46:33;3.83;;;2.10;;
80854;SDS011;70272;49.222;-122.892;2023-12-04T07:49:00;5.47;;;2.30;;
80854;SDS011;70272;49.222;-122.892;2023-12-04T07:51:26;2.70;;;2.10;;
80854;SDS011;70272;49.222;-122.892;2023-12-04T07:53:52;4.30;;;2.10;;
80854;SDS011;70272;49.222;-122.892;2023-12-04T07:56:19;2.55;;;1.80;;
80854;SDS011;70272;49.222;-122.892;2023-12-04T07:58:45;3.85;;;2.35;;
80854;SDS011;70272;49.222;-122.892;2023-12-04T08:01:11;4.05;;;2.03;;
80854;SDS011;70272;49.222;-122.892;2023-12-04T08:03:38;3.05;;;1.90;;
80854;SDS011;70272;49.222;-122.892;2023-12-04T08:06:04;3.25;;;2.03;;
80854;SDS011;70272;49.222;-122.892;2023-12-04T08:08:31;5.32;;;2.45;;
80854;SDS011;70272;49.222;-122.892;2023-12-04T08:10:57;5.10;;;2.22;;
80854;SDS011;70272;49.222;-122.892;2023-12-04T08:13:23;6.60;;;2.50;;
80854;SDS011;70272;49.222;-122.892;2023-12-04T08:15:49;4.47;;;2.15;;
80854;SDS011;70272;49.222;-122.892;2023-12-04T08:18:16;6.68;;;2.65;;
80854;SDS011;70272;49.222;-122.892;2023-12-04T08:20:42;4.70;;;2.25;;
80854;SDS011;70272;49.222;-122.892;2023-12-04T08:23:09;6.13;;;2.80;;
80854;SDS011;70272;49.222;-122.892;2023-12-04T08:25:35;4.13;;;2.75;;
80854;SDS011;70272;49.222;-122.892;2023-12-04T08:28:04;7.50;;;2.80;;
80854;SDS011;70272;49.222;-122.892;2023-12-04T08:30:31;5.40;;;2.95;;
80854;SDS011;70272;49.222;-122.892;2023-12-04T08:32:57;3.75;;;2.30;;
80854;SDS011;70272;49.222;-122.892;2023-12-04T08:35:24;6.72;;;2.45;;
80854;SDS011;70272;49.222;-122.892;2023-12-04T08:37:50;4.90;;;2.38;;
80854;SDS011;70272;49.222;-122.892;2023-12-04T08:40:16;5.28;;;2.53;;
80854;SDS011;70272;49.222;-122.892;2023-12-04T08:42:43;4.53;;;2.60;;
80854;SDS011;70272;49.222;-122.892;2023-12-04T08:45:10;6.03;;;2.85;;
80854;SDS011;70272;49.222;-122.892;2023-12-04T08:47:36;8.57;;;2.85;;
80854;SDS011;70272;49.222;-122.892;2023-12-04T08:50:03;5.15;;;2.88;;
80854;SDS011;70272;49.222;-122.892;2023-12-04T08:52:30;4.55;;;2.17;;
80854;SDS011;70272;49.222;-122.892;2023-12-04T08:54:56;5.38;;;2.70;;
80854;SDS011;70272;49.222;-122.892;2023-12-04T08:57:22;7.28;;;2.65;;
80854;SDS011;70272;49.222;-122.892;2023-12-04T08:59:48;5.55;;;2.70;;
80854;SDS011;70272;49.222;-122.892;2023-12-04T09:02:15;6.03;;;2.67;;
80854;SDS011;70272;49.222;-122.892;2023-12-04T09:04:41;4.68;;;2.28;;
80854;SDS011;70272;49.222;-122.892;2023-12-04T09:07:07;4.57;;;2.00;;
80854;SDS011;70272;49.222;-122.892;2023-12-04T09:09:33;3.45;;;2.22;;
80854;SDS011;70272;49.222;-122.892;2023-12-04T09:12:00;5.15;;;2.08;;
80854;SDS011;70272;49.222;-122.892;2023-12-04T09:14:26;4.10;;;2.05;;
80854;SDS011;70272;49.222;-122.892;2023-12-04T09:16:53;4.28;;;2.00;;
80854;SDS011;70272;49.222;-122.892;2023-12-04T09:19:20;3.50;;;1.90;;
80854;SDS011;70272;49.222;-122.892;2023-12-04T09:21:46;4.53;;;2.30;;
80854;SDS011;70272;49.222;-122.892;2023-12-04T09:24:12;5.78;;;1.90;;
80854;SDS011;70272;49.222;-122.892;2023-12-04T09:26:39;5.53;;;2.35;;
80854;SDS011;70272;49.222;-122.892;2023-12-04T09:29:06;4.03;;;2.42;;
80854;SDS011;70272;49.222;-122.892;2023-12-04T09:31:32;4.50;;;2.22;;
80854;SDS011;70272;49.222;-122.892;2023-12-04T09:33:58;7.80;;;2.42;;
80854;SDS011;70272;49.222;-122.892;2023-12-04T09:36:25;5.43;;;2.17;;
80854;SDS011;70272;49.222;-122.892;2023-12-04T09:38:51;6.38;;;2.50;;
80854;SDS011;70272;49.222;-122.892;2023-12-04T09:41:17;6.68;;;2.22;;
80854;SDS011;70272;49.222;-122.892;2023-12-04T09:43:44;2.97;;;2.40;;
80854;SDS011;70272;49.222;-122.892;2023-12-04T09:46:11;7.45;;;3.30;;
80854;SDS011;70272;49.222;-122.892;2023-12-04T09:48:38;2.97;;;2.22;;
80854;SDS011;70272;49.222;-122.892;2023-12-04T09:51:04;7.00;;;2.92;;
80854;SDS011;70272;49.222;-122.892;2023-12-04T09:53:31;6.32;;;2.60;;
80854;SDS011;70272;49.222;-122.892;2023-12-04T09:55:59;5.95;;;2.40;;
80854;SDS011;70272;49.222;-122.892;2023-12-04T09:58:26;3.53;;;2.00;;
80854;SDS011;70272;49.222;-122.892;2023-12-04T10:00:58;3.92;;;2.58;;
80854;SDS011;70272;49.222;-122.892;2023-12-04T10:03:28;3.88;;;2.40;;
80854;SDS011;70272;49.222;-122.892;2023-12-04T10:05:55;4.55;;;2.33;;
80854;SDS011;70272;49.222;-122.892;2023-12-04T10:08:24;4.82;;;2.33;;
80854;SDS011;70272;49.222;-122.892;2023-12-04T10:10:51;5.30;;;2.33;;
80854;SDS011;70272;49.222;-122.892;2023-12-04T10:13:17;3.70;;;2.30;;
80854;SDS011;70272;49.222;-122.892;2023-12-04T10:15:50;6.10;;;2.22;;
80854;SDS011;70272;49.222;-122.892;2023-12-04T10:18:26;4.70;;;2.30;;
80854;SDS011;70272;49.222;-122.892;2023-12-04T10:20:54;3.63;;;2.55;;
80854;SDS011;70272;49.222;-122.892;2023-12-04T10:23:21;4.03;;;2.30;;
80854;SDS011;70272;49.222;-122.892;2023-12-04T10:25:50;4.05;;;2.58;;
80854;SDS011;70272;49.222;-122.892;2023-12-04T10:28:17;4.90;;;3.03;;
80854;SDS011;70272;49.222;-122.892;2023-12-04T10:30:44;5.80;;;2.33;;
80854;SDS011;70272;49.222;-122.892;2023-12-04T10:33:11;4.15;;;2.72;;
80854;SDS011;70272;49.222;-122.892;2023-12-04T10:35:38;6.72;;;2.70;;
80854;SDS011;70272;49.222;-122.892;2023-12-04T10:38:06;4.88;;;2.30;;
80854;SDS011;70272;49.222;-122.892;2023-12-04T10:40:34;5.57;;;2.40;;
80854;SDS011;70272;49.222;-122.892;2023-12-04T10:43:11;7.18;;;2.90;;
80854;SDS011;70272;49.222;-122.892;2023-12-04T10:45:40;4.93;;;2.22;;
80854;SDS011;70272;49.222;-122.892;2023-12-04T10:48:08;6.07;;;2.60;;
80854;SDS011;70272;49.222;-122.892;2023-12-04T10:50:36;3.85;;;2.17;;
80854;SDS011;70272;49.222;-122.892;2023-12-04T10:53:06;5.15;;;2.50;;
80854;SDS011;70272;49.222;-122.892;2023-12-04T10:55:33;4.03;;;2.60;;
80854;SDS011;70272;49.222;-122.892;2023-12-04T10:58:09;6.18;;;2.70;;
80854;SDS011;70272;49.222;-122.892;2023-12-04T11:00:39;5.35;;;2.50;;
80854;SDS011;70272;49.222;-122.892;2023-12-04T11:03:21;5.18;;;2.30;;
80854;SDS011;70272;49.222;-122.892;2023-12-04T11:06:00;3.95;;;2.28;;
80854;SDS011;70272;49.222;-122.892;2023-12-04T11:08:32;5.75;;;2.80;;
80854;SDS011;70272;49.222;-122.892;2023-12-04T11:11:01;4.03;;;2.63;;
80854;SDS011;70272;49.222;-122.892;2023-12-04T11:13:34;4.78;;;2.33;;
80854;SDS011;70272;49.222;-122.892;2023-12-04T11:16:15;3.95;;;2.03;;
80854;SDS011;70272;49.222;-122.892;2023-12-04T11:18:46;3.72;;;2.20;;
80854;SDS011;70272;49.222;-122.892;2023-12-04T11:21:16;3.20;;;2.15;;
80854;SDS011;70272;49.222;-122.892;2023-12-04T11:23:44;5.63;;;2.20;;
80854;SDS011;70272;49.222;-122.892;2023-12-04T11:26:11;5.80;;;2.30;;
80854;SDS011;70272;49.222;-122.892;2023-12-04T11:28:38;3.75;;;1.92;;
80854;SDS011;70272;49.222;-122.892;2023-12-04T11:31:04;6.22;;;2.30;;
80854;SDS011;70272;49.222;-122.892;2023-12-04T11:33:35;4.25;;;2.30;;
80854;SDS011;70272;49.222;-122.892;2023-12-04T11:36:09;4.35;;;2.13;;
80854;SDS011;70272;49.222;-122.892;2023-12-04T11:38:42;5.03;;;1.95;;
80854;SDS011;70272;49.222;-122.892;2023-12-04T11:41:16;2.88;;;1.88;;
80854;SDS011;70272;49.222;-122.892;2023-12-04T11:43:44;3.08;;;1.55;;
80854;SDS011;70272;49.222;-122.892;2023-12-04T11:46:13;3.03;;;1.92;;
80854;SDS011;70272;49.222;-122.892;2023-12-04T11:48:51;4.97;;;1.83;;
80854;SDS011;70272;49.222;-122.892;2023-12-04T11:52:05;3.22;;;1.80;;
80854;SDS011;70272;49.222;-122.892;2023-12-04T11:59:39;3.70;;;1.80;;
80854;SDS011;70272;49.222;-122.892;2023-12-04T12:02:08;2.60;;;1.70;;
80854;SDS011;70272;49.222;-122.892;2023-12-04T12:04:36;3.88;;;1.90;;
80854;SDS011;70272;49.222;-122.892;2023-12-04T12:07:04;2.30;;;1.70;;
80854;SDS011;70272;49.222;-122.892;2023-12-04T12:09:34;2.67;;;1.67;;
80854;SDS011;70272;49.222;-122.892;2023-12-04T12:12:01;4.22;;;2.00;;
80854;SDS011;70272;49.222;-122.892;2023-12-04T12:14:28;3.55;;;1.70;;
80854;SDS011;70272;49.222;-122.892;2023-12-04T12:16:55;2.83;;;1.52;;
80854;SDS011;70272;49.222;-122.892;2023-12-04T12:19:23;4.88;;;1.75;;
80854;SDS011;70272;49.222;-122.892;2023-12-04T12:21:49;4.47;;;1.77;;
80854;SDS011;70272;49.222;-122.892;2023-12-04T12:24:17;3.30;;;1.70;;
80854;SDS011;70272;49.222;-122.892;2023-12-04T12:26:46;2.10;;;1.60;;
80854;SDS011;70272;49.222;-122.892;2023-12-04T12:29:13;3.72;;;1.65;;
80854;SDS011;70272;49.222;-122.892;2023-12-04T12:31:39;3.38;;;1.92;;
80854;SDS011;70272;49.222;-122.892;2023-12-04T12:34:05;4.85;;;1.60;;
80854;SDS011;70272;49.222;-122.892;2023-12-04T12:36:31;1.65;;;1.30;;
80854;SDS011;70272;49.222;-122.892;2023-12-04T12:39:01;4.18;;;1.98;;
80854;SDS011;70272;49.222;-122.892;2023-12-04T12:41:29;3.83;;;1.55;;
80854;SDS011;70272;49.222;-122.892;2023-12-04T12:43:56;3.05;;;1.27;;
80854;SDS011;70272;49.222;-122.892;2023-12-04T12:46:22;3.58;;;1.50;;
80854;SDS011;70272;49.222;-122.892;2023-12-04T12:48:48;3.35;;;1.48;;
80854;SDS011;70272;49.222;-122.892;2023-12-04T12:51:14;3.50;;;2.10;;
80854;SDS011;70272;49.222;-122.892;2023-12-04T12:53:43;2.38;;;1.48;;
80854;SDS011;70272;49.222;-122.892;2023-12-04T12:56:10;2.30;;;1.83;;
80854;SDS011;70272;49.222;-122.892;2023-12-04T12:58:36;3.10;;;1.33;;
80854;SDS011;70272;49.222;-122.892;2023-12-04T13:01:02;3.40;;;1.92;;
80854;SDS011;70272;49.222;-122.892;2023-12-04T13:03:30;3.00;;;1.50;;
80854;SDS011;70272;49.222;-122.892;2023-12-04T13:05:59;2.80;;;1.50;;
80854;SDS011;70272;49.222;-122.892;2023-12-04T13:08:25;3.00;;;1.55;;
80854;SDS011;70272;49.222;-122.892;2023-12-04T13:10:52;4.22;;;1.98;;
80854;SDS011;70272;49.222;-122.892;2023-12-04T13:13:19;5.07;;;1.73;;
80854;SDS011;70272;49.222;-122.892;2023-12-04T13:15:45;2.60;;;1.50;;
80854;SDS011;70272;49.222;-122.892;2023-12-04T13:18:11;2.72;;;1.40;;
80854;SDS011;70272;49.222;-122.892;2023-12-04T13:20:38;3.92;;;1.67;;
80854;SDS011;70272;49.222;-122.892;2023-12-04T13:23:04;2.80;;;1.58;;
80854;SDS011;70272;49.222;-122.892;2023-12-04T13:25:30;3.30;;;1.70;;
80854;SDS011;70272;49.222;-122.892;2023-12-04T13:27:57;2.88;;;1.30;;
80854;SDS011;70272;49.222;-122.892;2023-12-04T13:30:23;2.55;;;1.35;;
80854;SDS011;70272;49.222;-122.892;2023-12-04T13:32:49;2.20;;;1.27;;
80854;SDS011;70272;49.222;-122.892;2023-12-04T13:35:16;2.92;;;1.50;;
80854;SDS011;70272;49.222;-122.892;2023-12-04T13:37:42;5.82;;;1.50;;
80854;SDS011;70272;49.222;-122.892;2023-12-04T13:40:09;1.70;;;1.38;;
80854;SDS011;70272;49.222;-122.892;2023-12-04T13:42:41;3.88;;;1.40;;
80854;SDS011;70272;49.222;-122.892;2023-12-04T13:45:26;5.50;;;1.42;;
80854;SDS011;70272;49.222;-122.892;2023-12-04T13:47:52;3.88;;;1.60;;
80854;SDS011;70272;49.222;-122.892;2023-12-04T13:50:18;4.07;;;1.45;;
80854;SDS011;70272;49.222;-122.892;2023-12-04T13:52:47;4.85;;;1.50;;
80854;SDS011;70272;49.222;-122.892;2023-12-04T13:55:21;2.42;;;1.67;;
80854;SDS011;70272;49.222;-122.892;2023-12-04T13:58:02;1.27;;;1.10;;
80854;SDS011;70272;49.222;-122.892;2023-12-04T14:00:28;5.15;;;1.30;;
80854;SDS011;70272;49.222;-122.892;2023-12-04T14:02:54;1.98;;;1.33;;
80854;SDS011;70272;49.222;-122.892;2023-12-04T14:05:30;3.10;;;1.75;;
80854;SDS011;70272;49.222;-122.892;2023-12-04T14:07:57;3.72;;;2.20;;
80854;SDS011;70272;49.222;-122.892;2023-12-04T14:10:24;3.00;;;1.15;;
80854;SDS011;70272;49.222;-122.892;2023-12-04T14:12:51;1.30;;;1.20;;
80854;SDS011;70272;49.222;-122.892;2023-12-04T14:15:18;4.57;;;1.70;;